KVAD

Moody Air Force Base

Airport
ICAO code
KVAD
Summary
ICAO Region
NAM
ICAO Territory
Location

Valdosta, Georgia,

Coordinates
30° 58' 7" N , 83° 11' 35" W
KCC
Metar
KVAD 122255Z AUTO 35004KT 10SM FEW100 34/19 A3004 RMK AO2 SLP172 T03390191 $

Description

Moody Air Force Base is a United States Air Force installation located in Lowndes County and Lanier County, about 14 km northeast of Valdosta, Georgia.

Climatology

Humid “subtropical” climate (Köppen climate classification Cfa) - characterized by hot, humid summers and cool winters. Significant amounts of precipitation occur in all seasons in most areas.

Runways

Designator Length Width Surface Rops
18R/36L 2438 46 PEM Yes/Yes
18L/36R 2835 46 CON Yes/Yes

Airport map

Aerial View

SKYbrary Partners:

Safety knowledge contributed by: